Time;durP1;ratioP1;P1;durP2;ratioP2;P2;SDS_P1;SDS_P2;PMS_P1;PMS_P2;Temp;Humidity;BMP_temperature;BMP_pressure;BME280_temperature;BME280_humidity;BME280_pressure;Samples;Min_cycle;Max_cycle;Signal;HPM_P1;HPM_P2
2021/10/15 00:02:10;;;;;;;16.67;7.53;;;8.30;99.90;;;;;;5115744;28;20455;-61
2021/10/15 00:04:35;;;;;;;21.90;12.47;;;8.30;99.90;;;;;;5116113;28;20024;-61
2021/10/15 00:07:01;;;;;;;21.77;13.57;;;8.40;99.90;;;;;;5116454;28;20024;-60
2021/10/15 00:09:26;;;;;;;12.13;7.87;;;8.30;99.90;;;;;;5116029;28;20024;-60
2021/10/15 00:11:52;;;;;;;12.80;8.70;;;8.20;99.90;;;;;;5116058;28;20047;-58
2021/10/15 00:14:18;;;;;;;12.17;8.00;;;8.40;99.90;;;;;;5115848;28;20084;-61
2021/10/15 00:16:43;;;;;;;16.40;7.53;;;8.30;99.90;;;;;;5115663;28;20024;-58
2021/10/15 00:19:09;;;;;;;13.60;8.07;;;8.20;99.90;;;;;;5115482;28;20031;-58
2021/10/15 00:21:35;;;;;;;16.20;8.67;;;8.20;99.90;;;;;;5115331;28;20161;-58
2021/10/15 00:24:00;;;;;;;18.90;10.13;;;8.10;99.90;;;;;;5115689;28;20031;-59
2021/10/15 00:26:26;;;;;;;6.13;4.60;;;8.30;99.90;;;;;;5115393;28;20038;-59
2021/10/15 00:28:51;;;;;;;13.13;7.53;;;8.30;99.90;;;;;;5115744;28;20379;-60
2021/10/15 00:31:17;;;;;;;12.53;7.17;;;8.30;99.90;;;;;;5115682;28;20050;-61
2021/10/15 00:33:43;;;;;;;14.63;8.60;;;8.30;99.90;;;;;;5115341;28;20035;-57
2021/10/15 00:36:08;;;;;;;12.40;6.97;;;8.20;99.90;;;;;;5115735;28;20094;-57
2021/10/15 00:38:34;;;;;;;7.07;4.60;;;8.10;99.90;;;;;;5114766;28;20419;-58
2021/10/15 00:41:00;;;;;;;5.93;4.47;;;8.10;99.90;;;;;;5096847;28;20468;-57
2021/10/15 00:43:26;;;;;;;6.90;4.60;;;8.00;99.90;;;;;;5115013;28;20027;-57
2021/10/15 00:45:52;;;;;;;7.63;4.20;;;8.30;99.90;;;;;;5115151;28;20107;-56
2021/10/15 00:48:18;;;;;;;6.97;4.30;;;8.30;99.90;;;;;;5114847;28;20511;-55
2021/10/15 00:50:45;;;;;;;8.15;4.82;;;8.30;99.90;;;;;;5115353;28;20020;-58
2021/10/15 00:53:11;;;;;;;8.57;5.60;;;8.20;99.90;;;;;;5115397;28;20127;-59
2021/10/15 00:55:37;;;;;;;8.30;4.65;;;8.10;99.90;;;;;;5115809;28;20065;-61
2021/10/15 00:58:03;;;;;;;10.53;5.10;;;8.00;99.90;;;;;;5115501;28;20035;-56
2021/10/15 01:00:29;;;;;;;6.00;4.30;;;7.90;99.90;;;;;;5114969;28;20258;-55
2021/10/15 01:02:56;;;;;;;9.35;4.72;;;7.90;99.90;;;;;;5114755;28;20023;-57
2021/10/15 01:05:22;;;;;;;8.27;4.75;;;7.80;99.90;;;;;;5115074;28;20020;-56
2021/10/15 01:07:49;;;;;;;9.40;5.78;;;7.80;99.90;;;;;;5114649;28;20337;-60
2021/10/15 01:10:16;;;;;;;6.80;4.95;;;7.70;99.90;;;;;;5114516;28;20035;-58
2021/10/15 01:12:42;;;;;;;8.38;5.18;;;7.80;99.90;;;;;;5114431;28;20103;-61
2021/10/15 01:15:08;;;;;;;8.18;5.30;;;7.80;99.90;;;;;;5096050;28;20038;-61
2021/10/15 01:17:34;;;;;;;11.27;5.43;;;7.80;99.90;;;;;;5095947;28;20027;-60
2021/10/15 01:20:00;;;;;;;9.87;5.43;;;7.80;99.90;;;;;;5114289;28;20406;-59
2021/10/15 01:22:27;;;;;;;10.93;5.00;;;7.80;99.90;;;;;;5095751;28;20053;-58
2021/10/15 01:24:54;;;;;;;13.73;5.18;;;7.80;99.90;;;;;;5114358;28;20148;-58
2021/10/15 01:27:19;;;;;;;;;;;7.80;99.90;;;;;;5114884;28;20024;-59
2021/10/15 01:29:45;;;;;;;10.75;5.35;;;7.80;99.90;;;;;;5096701;28;19903;-61
2021/10/15 01:32:11;;;;;;;10.10;5.00;;;7.80;99.90;;;;;;5115633;28;20019;-59
2021/10/15 01:34:38;;;;;;;7.20;4.60;;;7.70;99.90;;;;;;5114595;28;20091;-61
2021/10/15 01:37:04;;;;;;;9.38;4.80;;;7.90;99.90;;;;;;5113990;28;20023;-60
2021/10/15 01:39:30;;;;;;;7.55;4.60;;;7.90;99.90;;;;;;5095748;28;20027;-60
2021/10/15 01:41:55;;;;;;;7.97;4.45;;;7.90;99.90;;;;;;5114016;28;20028;-59
2021/10/15 01:44:21;;;;;;;7.57;4.50;;;7.80;99.90;;;;;;5095528;28;20511;-61
2021/10/15 01:46:48;;;;;;;9.50;4.75;;;7.80;99.90;;;;;;5114341;28;20054;-59
2021/10/15 01:49:13;;;;;;;6.72;5.05;;;7.80;99.90;;;;;;5113930;28;20106;-61
2021/10/15 01:51:39;;;;;;;9.57;4.67;;;7.90;99.90;;;;;;5094519;28;20063;-58
2021/10/15 01:54:05;;;;;;;5.90;4.50;;;8.00;99.90;;;;;;5113909;28;20412;-59
2021/10/15 01:56:31;;;;;;;;;;;8.00;99.90;;;;;;5114236;28;20111;-59
2021/10/15 01:58:57;;;;;;;9.55;4.40;;;8.00;99.90;;;;;;5113942;28;19926;-59
2021/10/15 02:01:25;;;;;;;7.67;4.20;;;8.10;99.90;;;;;;5114153;28;20476;-59
2021/10/15 02:03:59;;;;;;;12.00;6.53;;;8.20;99.90;;;;;;5113735;28;20039;-59
2021/10/15 02:06:24;;;;;;;16.23;7.63;;;8.10;99.90;;;;;;5113583;28;20410;-59
2021/10/15 02:08:50;;;;;;;17.48;9.13;;;8.00;99.90;;;;;;5113663;28;20012;-61
2021/10/15 02:11:16;;;;;;;6.93;4.60;;;7.90;99.90;;;;;;5113482;28;20106;-59
2021/10/15 02:13:42;;;;;;;14.77;7.17;;;7.90;99.90;;;;;;5113407;28;20072;-57
2021/10/15 02:16:08;;;;;;;12.43;6.80;;;7.90;99.90;;;;;;5113539;28;20265;-59
2021/10/15 02:18:34;;;;;;;21.53;9.63;;;7.90;99.90;;;;;;5095059;28;20035;-60
2021/10/15 02:20:59;;;;;;;20.30;9.55;;;7.90;99.90;;;;;;5113313;28;20043;-60
2021/10/15 02:23:25;;;;;;;33.97;16.03;;;7.80;99.90;;;;;;5150885;23;20043;-68
2021/10/15 02:25:51;;;;;;;11.65;6.78;;;7.70;99.90;;;;;;5136215;27;20164;-68
2021/10/15 02:28:17;;;;;;;14.50;7.30;;;7.60;99.90;;;;;;5136462;27;20496;-68
2021/10/15 02:30:43;;;;;;;13.20;6.83;;;7.60;99.90;;;;;;5154612;27;20018;-67
2021/10/15 02:33:10;;;;;;;52.95;26.67;;;7.70;99.90;;;;;;5135946;27;20026;-68
2021/10/15 02:35:35;;;;;;;14.82;6.80;;;7.60;99.90;;;;;;5154731;27;20520;-68
2021/10/15 02:38:01;;;;;;;28.13;15.50;;;7.90;99.90;;;;;;5154891;27;20095;-68
2021/10/15 02:40:28;;;;;;;44.83;23.73;;;7.90;99.90;;;;;;5154462;27;20028;-68
2021/10/15 02:42:55;;;;;;;15.48;9.18;;;7.70;99.90;;;;;;5135913;27;20064;-67
2021/10/15 02:45:21;;;;;;;44.70;24.48;;;7.70;99.90;;;;;;5154420;27;20496;-68
2021/10/15 02:47:46;;;;;;;47.25;24.83;;;7.70;99.90;;;;;;5154680;27;20083;-68
2021/10/15 02:50:12;;;;;;;30.80;18.33;;;7.60;99.90;;;;;;5135858;27;20054;-68
2021/10/15 02:52:38;;;;;;;9.43;5.05;;;7.50;99.90;;;;;;5154316;27;20127;-68
2021/10/15 02:55:04;;;;;;;12.97;8.40;;;7.70;99.90;;;;;;5135822;27;20121;-68
2021/10/15 02:57:30;;;;;;;19.33;10.13;;;7.70;99.90;;;;;;5154155;27;20030;-68
2021/10/15 02:59:55;;;;;;;33.57;21.30;;;7.60;99.90;;;;;;5153134;27;20023;-69
2021/10/15 03:02:21;;;;;;;8.17;4.53;;;7.50;99.90;;;;;;5137726;27;20022;-68
2021/10/15 03:04:47;;;;;;;9.77;6.53;;;7.50;99.90;;;;;;5140064;27;20027;-68
2021/10/15 03:07:12;;;;;;;14.37;9.33;;;7.40;99.90;;;;;;5158546;27;20383;-68
2021/10/15 03:09:38;;;;;;;8.93;5.10;;;7.50;99.90;;;;;;5139866;27;20026;-69
2021/10/15 03:12:05;;;;;;;14.03;7.13;;;7.40;99.90;;;;;;5158382;27;20030;-69
2021/10/15 03:14:31;;;;;;;12.32;8.10;;;7.40;99.90;;;;;;5158399;27;20027;-69
2021/10/15 03:16:56;;;;;;;11.77;4.33;;;7.30;99.90;;;;;;5158216;27;20071;-68
2021/10/15 03:19:22;;;;;;;8.33;5.00;;;7.40;99.90;;;;;;5139731;27;20026;-69
2021/10/15 03:21:47;;;;;;;6.47;4.47;;;7.30;99.90;;;;;;5158027;27;20031;-68
2021/10/15 03:24:13;;;;;;;6.67;5.10;;;7.30;99.90;;;;;;5158237;27;20019;-69
2021/10/15 03:26:39;;;;;;;5.75;3.60;;;7.30;99.90;;;;;;5158405;27;20459;-69
2021/10/15 03:29:05;;;;;;;8.53;4.53;;;7.50;99.90;;;;;;5158515;27;20035;-68
2021/10/15 03:31:30;;;;;;;7.40;3.93;;;7.40;99.90;;;;;;5158076;27;20026;-69
2021/10/15 03:33:56;;;;;;;8.60;4.23;;;7.40;99.90;;;;;;5158194;27;20027;-68
2021/10/15 03:36:21;;;;;;;4.47;3.80;;;7.30;99.90;;;;;;5157872;27;20066;-68
2021/10/15 03:38:47;;;;;;;7.80;4.77;;;7.20;99.90;;;;;;5139252;27;20019;-68
2021/10/15 03:41:13;;;;;;;5.70;4.07;;;7.10;99.90;;;;;;5157783;27;20034;-68
2021/10/15 03:43:38;;;;;;;8.37;4.60;;;7.10;99.90;;;;;;5157746;27;20030;-68
2021/10/15 03:46:04;;;;;;;6.33;4.17;;;7.10;99.90;;;;;;5139259;27;20090;-69
2021/10/15 03:48:30;;;;;;;5.67;3.83;;;7.00;99.90;;;;;;5157867;27;20637;-67
2021/10/15 03:50:55;;;;;;;5.27;4.20;;;6.90;99.90;;;;;;5161276;27;20048;-70
2021/10/15 03:53:21;;;;;;;7.10;4.50;;;6.90;99.90;;;;;;5159413;27;20492;-71
2021/10/15 03:55:46;;;;;;;7.97;4.27;;;7.00;99.90;;;;;;5139404;27;20485;-70
2021/10/15 03:58:12;;;;;;;6.37;4.07;;;7.20;99.90;;;;;;5157821;27;20114;-70
2021/10/15 04:00:38;;;;;;;7.37;4.53;;;7.10;99.90;;;;;;5139110;27;20065;-70
2021/10/15 04:03:03;;;;;;;8.40;4.97;;;7.10;99.90;;;;;;5157304;27;20256;-71
2021/10/15 04:05:29;;;;;;;7.03;4.50;;;7.00;99.90;;;;;;5139099;27;20072;-69
2021/10/15 04:07:55;;;;;;;7.53;5.17;;;6.90;99.90;;;;;;5139268;27;20470;-69
2021/10/15 04:10:20;;;;;;;6.63;4.67;;;6.80;99.90;;;;;;5157396;27;20370;-66
2021/10/15 04:12:46;;;;;;;7.53;4.10;;;6.80;99.90;;;;;;5163026;27;20073;-67
2021/10/15 04:15:12;;;;;;;6.87;5.20;;;6.70;99.90;;;;;;5145194;27;20461;-67
2021/10/15 04:17:38;;;;;;;9.00;5.40;;;6.70;99.90;;;;;;5163311;27;20076;-67
2021/10/15 04:20:05;;;;;;;;;;;6.60;99.90;;;;;;5145882;27;20406;-67
2021/10/15 04:22:31;;;;;;;8.93;6.13;;;6.60;99.90;;;;;;5163197;27;19915;-68
2021/10/15 04:24:56;;;;;;;15.00;6.17;;;6.60;99.90;;;;;;5145293;27;20184;-68
2021/10/15 04:27:22;;;;;;;12.43;7.05;;;6.60;99.90;;;;;;5146434;27;20113;-67
2021/10/15 04:29:48;;;;;;;14.70;8.70;;;6.60;99.90;;;;;;5140583;27;20031;-69
2021/10/15 04:32:14;;;;;;;9.77;6.20;;;6.60;99.90;;;;;;5157291;27;20027;-69
2021/10/15 04:34:39;;;;;;;10.35;6.50;;;6.50;99.90;;;;;;5138815;27;20072;-69
2021/10/15 04:37:05;;;;;;;13.73;8.57;;;6.60;99.90;;;;;;5157633;27;20073;-69
2021/10/15 04:39:30;;;;;;;17.80;11.23;;;6.70;99.90;;;;;;5157176;27;20101;-69
2021/10/15 04:41:56;;;;;;;12.13;6.07;;;6.90;99.90;;;;;;5138365;27;20030;-69
2021/10/15 04:44:22;;;;;;;9.37;5.50;;;6.90;99.90;;;;;;5157108;27;20022;-68
2021/10/15 04:46:47;;;;;;;12.43;6.43;;;6.80;99.90;;;;;;5156918;27;20086;-69
2021/10/15 04:49:13;;;;;;;17.03;8.03;;;6.70;99.90;;;;;;5138382;27;20018;-69
2021/10/15 04:51:38;;;;;;;8.67;5.97;;;6.60;99.90;;;;;;5137969;27;20023;-69
2021/10/15 04:54:04;;;;;;;13.27;8.53;;;6.60;99.90;;;;;;5156636;27;20026;-69
2021/10/15 04:56:30;;;;;;;11.43;5.80;;;6.50;99.90;;;;;;5137949;27;20106;-68
2021/10/15 04:58:56;;;;;;;6.70;5.30;;;6.80;99.90;;;;;;5156433;27;20433;-69
2021/10/15 05:01:22;;;;;;;7.75;5.30;;;6.70;99.90;;;;;;5137864;27;20022;-69
2021/10/15 05:03:48;;;;;;;7.53;5.45;;;6.80;99.90;;;;;;5137913;27;20506;-69
2021/10/15 05:06:14;;;;;;;9.00;4.90;;;6.70;99.90;;;;;;5137628;27;20031;-68
2021/10/15 05:08:49;;;;;;;8.93;5.73;;;6.70;99.90;;;;;;5138423;27;20018;-69
2021/10/15 05:11:15;;;;;;;7.60;5.50;;;6.60;99.90;;;;;;5137908;27;20065;-70
2021/10/15 05:13:41;;;;;;;12.38;6.88;;;6.60;99.90;;;;;;5137749;27;20022;-72
2021/10/15 05:16:06;;;;;;;9.47;6.80;;;6.50;99.90;;;;;;5156346;27;20110;-71
2021/10/15 05:18:32;;;;;;;8.70;5.47;;;6.40;99.90;;;;;;5137385;27;20283;-71
2021/10/15 05:20:58;;;;;;;11.00;7.00;;;6.40;99.90;;;;;;5156111;27;20060;-72
2021/10/15 05:23:23;;;;;;;9.00;5.87;;;6.30;99.90;;;;;;5155616;27;20035;-72
2021/10/15 05:25:49;;;;;;;8.00;5.87;;;6.30;99.90;;;;;;5156018;27;20106;-73
2021/10/15 05:28:15;;;;;;;10.43;6.03;;;6.30;99.90;;;;;;5154971;27;20058;-71
2021/10/15 05:30:41;;;;;;;11.18;6.35;;;6.20;99.90;;;;;;5154921;27;20486;-72
2021/10/15 05:33:07;;;;;;;14.93;6.00;;;6.30;99.90;;;;;;5137673;27;20034;-73
2021/10/15 05:35:33;;;;;;;13.85;6.78;;;6.40;99.90;;;;;;5155923;27;20308;-68
2021/10/15 05:37:59;;;;;;;11.10;7.07;;;6.40;99.90;;;;;;5137743;27;20475;-72
2021/10/15 05:40:25;;;;;;;11.23;6.85;;;6.30;99.90;;;;;;5137305;27;20531;-70
2021/10/15 05:42:50;;;;;;;10.13;6.88;;;6.30;99.90;;;;;;5155161;27;20042;-70
2021/10/15 05:45:17;;;;;;;9.93;6.23;;;6.30;99.90;;;;;;5136814;27;20042;-68
2021/10/15 05:47:43;;;;;;;14.90;7.15;;;6.30;99.90;;;;;;5155495;27;20367;-68
2021/10/15 05:50:10;;;;;;;15.02;6.60;;;6.30;99.90;;;;;;5156233;27;20057;-69
2021/10/15 05:52:48;;;;;;;11.13;6.38;;;6.30;99.90;;;;;;5155397;27;20547;-69
2021/10/15 06:00:26;;;;;;;11.15;7.38;;;6.30;99.90;;;;;;5155520;27;20049;-69
2021/10/15 06:02:51;;;;;;;13.02;6.35;;;6.40;99.90;;;;;;5155857;27;20055;-69
2021/10/15 06:14:14;;;;;;;13.32;8.48;;;6.40;99.90;;;;;;5156651;27;20030;-69
2021/10/15 06:16:29;;;;;;;14.32;8.70;;;6.40;99.90;;;;;;5155939;27;20026;-68
2021/10/15 06:19:04;;;;;;;13.63;9.52;;;6.50;99.90;;;;;;5136908;27;20117;-68
2021/10/15 06:21:31;;;;;;;13.88;8.77;;;6.50;99.90;;;;;;5155521;27;20102;-68
2021/10/15 06:23:56;;;;;;;;;;;6.60;99.90;;;;;;5156055;27;20102;-68
2021/10/15 06:26:22;;;;;;;12.60;7.65;;;6.60;99.90;;;;;;5136861;27;20319;-68
2021/10/15 06:28:48;;;;;;;15.50;8.90;;;6.60;99.90;;;;;;5156020;27;20051;-68
2021/10/15 06:31:13;;;;;;;14.63;8.63;;;6.70;99.90;;;;;;5155315;27;20022;-68
2021/10/15 06:33:39;;;;;;;13.80;7.70;;;6.70;99.90;;;;;;5154752;27;20030;-67
2021/10/15 06:36:05;;;;;;;12.80;8.80;;;6.70;99.90;;;;;;5154852;27;20508;-69
2021/10/15 06:38:30;;;;;;;15.48;8.70;;;6.80;99.90;;;;;;5154855;27;20562;-68
2021/10/15 06:40:56;;;;;;;27.73;11.87;;;6.80;99.90;;;;;;5154752;27;20050;-68
2021/10/15 06:43:24;;;;;;;19.75;11.07;;;6.80;99.90;;;;;;5154697;27;20023;-68
2021/10/15 06:45:50;;;;;;;17.67;9.63;;;6.80;99.90;;;;;;5154549;27;20019;-68
2021/10/15 06:48:16;;;;;;;17.13;8.85;;;6.80;99.90;;;;;;5154712;27;20045;-69
2021/10/15 06:50:41;;;;;;;12.00;8.53;;;6.80;99.90;;;;;;5135329;27;20387;-69
2021/10/15 06:53:09;;;;;;;22.07;12.27;;;6.90;99.90;;;;;;5135671;27;20030;-69
2021/10/15 06:55:35;;;;;;;16.83;8.88;;;6.90;99.90;;;;;;5154355;27;20019;-68
2021/10/15 06:58:00;;;;;;;17.92;9.68;;;6.90;99.90;;;;;;5154292;27;20056;-68
2021/10/15 07:00:26;;;;;;;17.03;8.37;;;6.90;99.90;;;;;;5154968;27;20023;-68
2021/10/15 07:02:52;;;;;;;20.27;10.87;;;6.90;99.90;;;;;;5154248;27;20019;-68
2021/10/15 07:05:18;;;;;;;14.63;9.13;;;7.00;99.90;;;;;;5135799;27;20025;-69
2021/10/15 07:07:43;;;;;;;16.55;9.85;;;7.00;99.90;;;;;;5154276;27;20380;-68
2021/10/15 07:10:09;;;;;;;19.47;10.93;;;7.00;99.90;;;;;;5135404;27;20023;-68
2021/10/15 07:12:39;;;;;;;12.40;8.55;;;7.00;99.90;;;;;;5154152;27;20084;-68
2021/10/15 07:15:10;;;;;;;16.13;8.85;;;7.00;99.90;;;;;;5153978;27;20101;-68
2021/10/15 07:17:36;;;;;;;15.35;8.95;;;7.10;99.90;;;;;;5154180;27;20031;-68
2021/10/15 07:20:04;;;;;;;17.23;9.40;;;7.10;99.90;;;;;;5153879;27;20538;-68
2021/10/15 07:22:29;;;;;;;15.57;9.32;;;7.10;99.90;;;;;;5154064;27;20037;-68
2021/10/15 07:24:55;;;;;;;22.75;9.10;;;7.20;99.90;;;;;;5154884;27;20460;-68
2021/10/15 07:27:21;;;;;;;12.57;8.93;;;7.20;99.90;;;;;;5153740;27;20110;-68
2021/10/15 07:29:46;;;;;;;14.13;9.33;;;7.20;99.90;;;;;;5153864;27;20106;-68
2021/10/15 07:32:12;;;;;;;17.57;11.17;;;7.40;99.90;;;;;;5154128;27;20029;-70
2021/10/15 07:34:38;;;;;;;22.03;10.87;;;7.40;99.90;;;;;;5135441;27;20111;-67
2021/10/15 07:37:04;;;;;;;12.85;8.68;;;7.40;99.90;;;;;;5135252;27;20023;-67
2021/10/15 07:39:30;;;;;;;12.23;8.02;;;7.40;99.90;;;;;;5135767;27;20027;-67
2021/10/15 07:41:59;;;;;;;14.73;9.93;;;7.40;99.90;;;;;;5154340;27;20072;-67
2021/10/15 07:44:24;;;;;;;15.13;9.13;;;7.40;99.90;;;;;;5135765;27;20023;-67
2021/10/15 07:46:52;;;;;;;11.13;8.03;;;7.40;99.90;;;;;;5154004;27;20076;-67
2021/10/15 07:49:18;;;;;;;13.52;9.02;;;7.40;99.90;;;;;;5136892;27;20129;-67
2021/10/15 07:51:43;;;;;;;11.73;7.95;;;7.40;99.90;;;;;;5157578;27;20121;-67
2021/10/15 07:54:09;;;;;;;10.73;7.47;;;7.50;99.90;;;;;;5138760;27;20031;-67
2021/10/15 07:56:35;;;;;;;12.27;8.48;;;7.60;99.90;;;;;;5157444;27;20340;-66
2021/10/15 07:59:01;;;;;;;14.05;7.72;;;7.80;99.90;;;;;;5157555;27;20070;-67
2021/10/15 08:01:27;;;;;;;10.85;7.15;;;8.00;99.90;;;;;;5157126;27;20022;-67
2021/10/15 08:03:53;;;;;;;12.63;7.15;;;8.20;99.90;;;;;;5157284;27;20030;-67
2021/10/15 08:06:19;;;;;;;11.25;7.10;;;8.30;99.90;;;;;;5157191;27;20019;-68
2021/10/15 08:08:45;;;;;;;11.23;7.53;;;8.40;99.90;;;;;;5157111;27;20035;-67
2021/10/15 08:11:12;;;;;;;15.07;7.47;;;8.40;99.90;;;;;;5156912;27;20038;-68
2021/10/15 08:13:38;;;;;;;;;;;8.40;99.90;;;;;;5157596;27;20022;-67
2021/10/15 08:16:04;;;;;;;12.80;8.00;;;8.30;99.90;;;;;;5138489;27;20286;-68
2021/10/15 08:18:30;;;;;;;12.82;8.88;;;8.40;99.90;;;;;;5157313;27;20022;-68
2021/10/15 08:20:58;;;;;;;13.90;8.23;;;8.40;99.90;;;;;;5156975;27;20019;-67
2021/10/15 08:23:26;;;;;;;12.38;7.90;;;8.50;99.90;;;;;;5157114;27;20130;-68
2021/10/15 08:25:54;;;;;;;13.70;8.65;;;8.60;99.90;;;;;;5156658;27;20572;-67
2021/10/15 08:28:20;;;;;;;14.13;8.20;;;8.70;99.90;;;;;;5156636;27;20114;-67
2021/10/15 08:30:46;;;;;;;11.85;7.80;;;8.80;99.90;;;;;;5157213;27;20037;-67
2021/10/15 08:33:12;;;;;;;11.80;7.82;;;8.90;99.90;;;;;;5157237;27;20382;-67
2021/10/15 08:35:38;;;;;;;11.23;7.43;;;9.00;99.90;;;;;;5157051;27;20031;-68
2021/10/15 08:38:03;;;;;;;11.70;9.03;;;9.10;99.90;;;;;;5156634;27;20268;-67
2021/10/15 08:40:29;;;;;;;11.83;6.97;;;9.20;99.90;;;;;;5138686;27;20068;-67
2021/10/15 08:42:56;;;;;;;11.52;7.22;;;9.20;99.90;;;;;;5157706;27;20019;-67
2021/10/15 08:45:31;;;;;;;11.30;6.88;;;9.30;99.90;;;;;;5139186;27;20160;-68
2021/10/15 08:47:59;;;;;;;10.07;6.95;;;9.50;99.90;;;;;;5158751;27;20026;-68
2021/10/15 08:50:25;;;;;;;8.75;6.65;;;9.50;99.90;;;;;;5157572;27;20022;-68
2021/10/15 08:52:51;;;;;;;;;;;9.60;99.90;;;;;;5157163;27;20031;-67
2021/10/15 08:55:17;;;;;;;9.75;6.30;;;9.70;99.90;;;;;;5156535;27;19910;-67
2021/10/15 08:57:55;;;;;;;10.73;6.10;;;9.80;99.90;;;;;;5138330;27;20068;-67
2021/10/15 09:00:27;;;;;;;12.20;6.20;;;10.00;99.90;;;;;;5156602;27;20026;-68
2021/10/15 09:03:20;;;;;;;10.35;6.18;;;10.10;99.90;;;;;;5156396;27;20027;-68
2021/10/15 09:05:58;;;;;;;9.00;5.85;;;10.50;99.90;;;;;;5156701;27;20104;-68
2021/10/15 09:08:26;;;;;;;9.57;6.25;;;11.00;99.90;;;;;;5156666;27;20023;-68
2021/10/15 09:10:52;;;;;;;7.47;5.60;;;11.40;99.90;;;;;;5156582;27;20323;-68
2021/10/15 09:13:21;;;;;;;7.43;5.28;;;11.80;99.90;;;;;;5137188;27;20079;-68
2021/10/15 09:15:50;;;;;;;9.13;5.57;;;12.10;99.90;;;;;;5155988;27;20482;-67
2021/10/15 09:18:32;;;;;;;8.30;6.18;;;12.30;99.90;;;;;;5156110;27;20075;-68
2021/10/15 09:20:58;;;;;;;9.43;5.38;;;12.30;99.90;;;;;;5156417;27;20110;-68
2021/10/15 09:23:44;;;;;;;9.20;6.10;;;12.40;99.90;;;;;;5155957;27;20035;-68
2021/10/15 09:26:10;;;;;;;10.20;6.10;;;12.60;99.90;;;;;;5136915;27;20345;-68
2021/10/15 09:28:47;;;;;;;8.18;5.57;;;12.80;99.90;;;;;;5155807;27;20019;-67
2021/10/15 09:31:13;;;;;;;7.35;4.97;;;13.00;99.90;;;;;;5155665;27;20023;-68
2021/10/15 09:33:51;;;;;;;10.10;4.97;;;13.10;99.90;;;;;;5136824;27;20088;-68
2021/10/15 09:36:19;;;;;;;6.45;4.82;;;13.40;99.90;;;;;;5155738;27;20030;-68
2021/10/15 09:38:45;;;;;;;9.95;5.38;;;13.80;99.90;;;;;;5155465;27;20475;-68
2021/10/15 09:41:39;;;;;;;7.47;5.18;;;14.00;99.90;;;;;;5136849;27;20034;-69
2021/10/15 09:44:32;;;;;;;7.70;5.10;;;14.30;99.90;;;;;;5155685;27;20043;-69
2021/10/15 09:47:23;;;;;;;9.05;5.00;;;15.40;99.90;;;;;;5147522;27;20059;-69
2021/10/15 09:49:54;;;;;;;7.00;4.57;;;17.20;99.90;;;;;;5155411;27;20019;-69
2021/10/15 09:52:29;;;;;;;7.47;4.28;;;19.30;96.30;;;;;;5155359;27;20023;-69
2021/10/15 09:54:57;;;;;;;5.82;3.75;;;21.50;92.20;;;;;;5155342;27;20049;-68
2021/10/15 09:57:31;;;;;;;5.07;3.80;;;23.00;87.20;;;;;;5155186;27;20030;-68
2021/10/15 09:59:58;;;;;;;6.38;4.43;;;24.30;80.30;;;;;;5154977;27;20063;-68
2021/10/15 10:02:24;;;;;;;5.53;4.00;;;25.40;75.30;;;;;;5154663;27;20380;-67
2021/10/15 10:04:51;;;;;;;;;;;25.90;72.10;;;;;;5155299;27;20171;-67
2021/10/15 10:07:17;;;;;;;;;;;26.40;69.70;;;;;;5155582;27;19903;-68
2021/10/15 10:09:43;;;;;;;6.75;4.20;;;26.80;67.20;;;;;;5155385;27;20379;-67
2021/10/15 10:12:13;;;;;;;4.63;3.60;;;27.10;65.90;;;;;;5154702;27;20035;-67
2021/10/15 10:14:39;;;;;;;5.00;3.42;;;26.90;64.50;;;;;;5155533;27;20023;-67
2021/10/15 10:17:08;;;;;;;4.50;3.55;;;25.80;65.80;;;;;;5155004;27;20025;-67
2021/10/15 10:19:36;;;;;;;5.68;3.65;;;25.40;66.40;;;;;;5154734;27;20063;-68
2021/10/15 10:22:03;;;;;;;4.43;3.67;;;24.20;68.40;;;;;;5135664;27;20106;-68
2021/10/15 10:24:33;;;;;;;4.72;3.33;;;24.00;69.40;;;;;;5154674;27;20019;-68
2021/10/15 10:26:59;;;;;;;4.75;3.78;;;25.20;67.70;;;;;;5154578;27;20023;-68
2021/10/15 10:29:26;;;;;;;6.88;3.97;;;26.40;65.30;;;;;;5154721;27;20421;-68
2021/10/15 10:31:53;;;;;;;4.90;3.80;;;26.70;64.10;;;;;;5154376;27;20102;-68
2021/10/15 10:34:28;;;;;;;8.60;6.07;;;27.30;63.70;;;;;;5154334;27;20424;-67
2021/10/15 10:37:05;;;;;;;5.38;3.83;;;27.60;62.90;;;;;;5154517;27;20023;-68
2021/10/15 10:39:31;;;;;;;5.80;3.90;;;27.70;62.70;;;;;;5135944;27;20113;-67
2021/10/15 10:42:05;;;;;;;5.15;3.63;;;27.10;62.70;;;;;;5136041;27;20101;-67
2021/10/15 10:44:36;;;;;;;5.53;4.00;;;26.50;63.40;;;;;;5154625;27;20027;-67
2021/10/15 10:47:26;;;;;;;6.20;3.90;;;25.60;64.40;;;;;;5136242;27;20083;-68
2021/10/15 10:50:05;;;;;;;9.68;6.28;;;24.20;67.00;;;;;;5154346;27;20027;-68
2021/10/15 10:52:32;;;;;;;7.40;4.28;;;22.60;69.80;;;;;;5154466;27;20106;-69
2021/10/15 10:54:57;;;;;;;6.65;3.95;;;21.50;72.90;;;;;;5136933;27;20134;-68
2021/10/15 10:57:30;;;;;;;;;;;20.60;75.90;;;;;;5154819;27;20093;-68
2021/10/15 11:00:19;;;;;;;7.63;4.18;;;19.80;78.00;;;;;;5135704;27;19906;-68
2021/10/15 11:02:47;;;;;;;6.65;4.50;;;19.20;79.70;;;;;;5154587;27;20387;-68
2021/10/15 11:05:27;;;;;;;8.02;4.47;;;18.80;81.30;;;;;;5154090;27;20535;-67
2021/10/15 11:08:26;;;;;;;8.02;4.53;;;18.40;82.80;;;;;;5135756;27;20030;-68
2021/10/15 11:10:54;;;;;;;9.05;4.20;;;18.20;83.90;;;;;;5135294;27;20065;-69
2021/10/15 11:13:33;;;;;;;6.43;4.22;;;18.00;85.20;;;;;;5135471;27;20033;-70
2021/10/15 11:15:59;;;;;;;8.98;4.72;;;17.80;85.90;;;;;;5154235;27;20381;-70
2021/10/15 11:18:25;;;;;;;5.10;4.25;;;17.60;86.90;;;;;;5153989;27;20101;-69
2021/10/15 11:20:53;;;;;;;5.05;4.53;;;17.50;87.40;;;;;;5154410;27;20053;-69
2021/10/15 11:23:20;;;;;;;6.60;4.75;;;17.30;88.40;;;;;;5155745;27;20027;-70
2021/10/15 11:25:47;;;;;;;11.85;4.25;;;17.30;88.80;;;;;;5158618;27;20035;-70
2021/10/15 11:28:16;;;;;;;7.60;4.60;;;17.20;89.70;;;;;;5159654;27;20416;-70
2021/10/15 11:30:49;;;;;;;6.15;4.38;;;17.00;90.20;;;;;;5139529;27;20027;-70
2021/10/15 11:33:17;;;;;;;8.27;4.40;;;16.70;90.70;;;;;;5158170;27;20027;-70
2021/10/15 11:35:45;;;;;;;7.30;4.65;;;16.70;90.90;;;;;;5158382;27;20406;-71
2021/10/15 11:38:22;;;;;;;8.35;4.60;;;16.60;91.30;;;;;;5157813;27;20022;-71
2021/10/15 11:41:11;;;;;;;6.63;4.82;;;16.50;91.50;;;;;;5139199;27;20026;-71
2021/10/15 11:43:39;;;;;;;5.90;4.00;;;16.40;91.60;;;;;;5157779;27;20015;-71
2021/10/15 11:46:10;;;;;;;8.45;4.55;;;16.40;91.70;;;;;;5157853;27;20020;-70
2021/10/15 11:48:42;;;;;;;7.60;4.43;;;16.50;91.70;;;;;;5157541;27;20027;-70
2021/10/15 11:51:26;;;;;;;8.13;4.82;;;16.50;91.60;;;;;;5138816;27;20087;-70
2021/10/15 11:53:57;;;;;;;7.55;4.10;;;16.50;91.70;;;;;;5157443;27;20055;-71
2021/10/15 11:56:27;;;;;;;7.75;4.55;;;16.40;91.90;;;;;;5138580;27;20071;-71
2021/10/15 11:58:58;;;;;;;7.93;4.63;;;16.30;91.90;;;;;;5158067;27;20087;-69
2021/10/15 12:01:35;;;;;;;9.60;4.45;;;16.30;92.20;;;;;;5139153;27;20030;-69
2021/10/15 12:04:00;;;;;;;7.65;4.25;;;16.30;92.40;;;;;;5157485;27;20023;-68
2021/10/15 12:06:35;;;;;;;7.53;3.57;;;16.10;92.20;;;;;;5157988;27;20117;-70
2021/10/15 12:09:22;;;;;;;4.80;3.50;;;16.00;92.60;;;;;;5157385;27;20029;-71
2021/10/15 12:11:52;;;;;;;9.00;4.95;;;16.00;92.60;;;;;;5138452;27;20019;-71
2021/10/15 12:14:32;;;;;;;7.18;4.20;;;16.00;92.90;;;;;;5139071;27;20023;-72
2021/10/15 12:17:06;;;;;;;11.23;4.57;;;15.90;93.20;;;;;;5157491;27;20102;-72
2021/10/15 12:19:34;;;;;;;8.70;4.90;;;15.90;93.50;;;;;;5157579;27;20031;-72
2021/10/15 12:22:03;;;;;;;5.95;3.88;;;16.00;93.90;;;;;;5157215;27;20027;-71
2021/10/15 12:24:46;;;;;;;7.78;4.47;;;16.00;93.40;;;;;;5157412;27;20074;-70
2021/10/15 12:27:24;;;;;;;6.53;3.45;;;15.80;93.40;;;;;;5138655;27;20026;-75
2021/10/15 12:29:56;;;;;;;8.02;5.03;;;15.70;93.40;;;;;;5157158;27;20327;-77
2021/10/15 12:32:28;;;;;;;4.85;3.70;;;15.60;93.50;;;;;;5157005;27;20025;-72
2021/10/15 12:35:02;;;;;;;7.38;4.10;;;15.70;94.00;;;;;;5137672;27;20386;-70
2021/10/15 12:37:51;;;;;;;9.23;5.45;;;15.70;94.00;;;;;;5156684;27;20432;-69
2021/10/15 12:40:25;;;;;;;7.85;5.05;;;15.70;94.00;;;;;;5156887;27;20023;-71
2021/10/15 12:43:03;;;;;;;8.40;4.53;;;15.80;93.80;;;;;;5137939;27;20023;-71
2021/10/15 12:45:45;;;;;;;8.73;4.57;;;15.70;93.90;;;;;;5158087;27;20011;-71
2021/10/15 12:48:25;;;;;;;9.60;4.32;;;15.80;94.10;;;;;;5156566;27;20027;-70
2021/10/15 12:51:01;;;;;;;9.45;4.18;;;15.80;94.10;;;;;;5156684;27;20490;-71
2021/10/15 12:53:33;;;;;;;9.32;3.33;;;15.90;94.20;;;;;;5156651;27;20041;-70
2021/10/15 12:55:59;;;;;;;6.88;3.75;;;15.80;93.80;;;;;;5157157;27;20019;-71
2021/10/15 12:58:26;;;;;;;7.20;3.60;;;15.80;94.20;;;;;;5156522;27;20364;-72
2021/10/15 13:01:01;;;;;;;8.73;3.63;;;15.80;93.90;;;;;;5137901;27;20054;-69
2021/10/15 13:03:28;;;;;;;7.80;3.97;;;15.80;94.10;;;;;;5156633;27;20015;-73
2021/10/15 13:05:56;;;;;;;9.18;3.75;;;15.90;94.40;;;;;;5156493;27;20026;-75
2021/10/15 13:08:22;;;;;;;6.85;3.63;;;16.00;94.70;;;;;;5138047;27;20027;-71
2021/10/15 13:10:48;;;;;;;5.85;3.60;;;16.00;94.10;;;;;;5156206;27;20044;-71